sensor_id;sensor_type;location;lat;lon;timestamp;P1;durP1;ratioP1;P2;durP2;ratioP2
38397;SDS011;24179;52.094;4.408;2024-03-02T00:02:07;2.50;;;2.30;;
38397;SDS011;24179;52.094;4.408;2024-03-02T00:05:07;2.42;;;2.25;;
38397;SDS011;24179;52.094;4.408;2024-03-02T00:08:11;2.58;;;2.38;;
38397;SDS011;24179;52.094;4.408;2024-03-02T00:11:15;2.40;;;2.20;;
38397;SDS011;24179;52.094;4.408;2024-03-02T00:14:16;2.75;;;2.55;;
38397;SDS011;24179;52.094;4.408;2024-03-02T00:17:17;2.50;;;2.30;;
38397;SDS011;24179;52.094;4.408;2024-03-02T00:20:26;2.35;;;2.00;;
38397;SDS011;24179;52.094;4.408;2024-03-02T00:23:30;2.22;;;2.13;;
38397;SDS011;24179;52.094;4.408;2024-03-02T00:26:43;3.40;;;2.42;;
38397;SDS011;24179;52.094;4.408;2024-03-02T00:29:55;2.42;;;2.22;;
38397;SDS011;24179;52.094;4.408;2024-03-02T00:38:59;2.50;;;2.30;;
38397;SDS011;24179;52.094;4.408;2024-03-02T00:42:02;3.33;;;2.33;;
38397;SDS011;24179;52.094;4.408;2024-03-02T00:45:07;2.72;;;2.50;;
38397;SDS011;24179;52.094;4.408;2024-03-02T00:48:17;2.60;;;2.40;;
38397;SDS011;24179;52.094;4.408;2024-03-02T00:51:18;3.47;;;2.60;;
38397;SDS011;24179;52.094;4.408;2024-03-02T00:54:19;2.77;;;2.47;;
38397;SDS011;24179;52.094;4.408;2024-03-02T00:57:36;4.03;;;2.65;;
38397;SDS011;24179;52.094;4.408;2024-03-02T01:00:38;2.83;;;2.50;;
38397;SDS011;24179;52.094;4.408;2024-03-02T01:03:42;2.47;;;2.28;;
38397;SDS011;24179;52.094;4.408;2024-03-02T01:06:43;3.63;;;2.33;;
38397;SDS011;24179;52.094;4.408;2024-03-02T01:09:43;3.03;;;2.70;;
38397;SDS011;24179;52.094;4.408;2024-03-02T01:12:45;3.22;;;2.40;;
38397;SDS011;24179;52.094;4.408;2024-03-02T01:15:45;2.93;;;2.67;;
38397;SDS011;24179;52.094;4.408;2024-03-02T01:18:46;3.57;;;3.10;;
38397;SDS011;24179;52.094;4.408;2024-03-02T01:21:47;3.33;;;2.60;;
38397;SDS011;24179;52.094;4.408;2024-03-02T01:24:47;2.90;;;2.60;;
38397;SDS011;24179;52.094;4.408;2024-03-02T01:30:52;2.80;;;2.60;;
38397;SDS011;24179;52.094;4.408;2024-03-02T01:33:55;3.92;;;2.90;;
38397;SDS011;24179;52.094;4.408;2024-03-02T01:36:56;3.67;;;2.80;;
38397;SDS011;24179;52.094;4.408;2024-03-02T01:39:56;3.03;;;2.63;;
38397;SDS011;24179;52.094;4.408;2024-03-02T01:43:00;2.83;;;2.63;;
38397;SDS011;24179;52.094;4.408;2024-03-02T01:46:02;3.17;;;2.70;;
38397;SDS011;24179;52.094;4.408;2024-03-02T01:49:08;3.55;;;2.80;;
38397;SDS011;24179;52.094;4.408;2024-03-02T01:52:15;3.97;;;2.67;;
38397;SDS011;24179;52.094;4.408;2024-03-02T01:55:16;2.80;;;2.60;;
38397;SDS011;24179;52.094;4.408;2024-03-02T01:58:16;3.00;;;2.57;;
38397;SDS011;24179;52.094;4.408;2024-03-02T02:01:17;2.60;;;2.40;;
38397;SDS011;24179;52.094;4.408;2024-03-02T02:04:18;2.80;;;2.60;;
38397;SDS011;24179;52.094;4.408;2024-03-02T02:07:27;2.70;;;2.50;;
38397;SDS011;24179;52.094;4.408;2024-03-02T02:10:31;2.83;;;2.55;;
38397;SDS011;24179;52.094;4.408;2024-03-02T02:13:33;3.75;;;2.65;;
38397;SDS011;24179;52.094;4.408;2024-03-02T02:16:35;3.92;;;2.40;;
38397;SDS011;24179;52.094;4.408;2024-03-02T02:19:36;3.73;;;2.63;;
38397;SDS011;24179;52.094;4.408;2024-03-02T02:22:37;4.40;;;2.40;;
38397;SDS011;24179;52.094;4.408;2024-03-02T02:25:48;3.05;;;2.60;;
38397;SDS011;24179;52.094;4.408;2024-03-02T02:28:51;4.22;;;2.60;;
38397;SDS011;24179;52.094;4.408;2024-03-02T02:31:52;3.73;;;2.50;;
38397;SDS011;24179;52.094;4.408;2024-03-02T02:34:53;3.23;;;2.93;;
38397;SDS011;24179;52.094;4.408;2024-03-02T02:37:58;3.22;;;2.92;;
38397;SDS011;24179;52.094;4.408;2024-03-02T02:40:59;4.60;;;2.90;;
38397;SDS011;24179;52.094;4.408;2024-03-02T02:43:59;4.93;;;3.10;;
38397;SDS011;24179;52.094;4.408;2024-03-02T02:47:00;3.83;;;3.30;;
38397;SDS011;24179;52.094;4.408;2024-03-02T02:50:01;3.37;;;3.07;;
38397;SDS011;24179;52.094;4.408;2024-03-02T02:53:03;5.53;;;3.72;;
38397;SDS011;24179;52.094;4.408;2024-03-02T02:56:06;5.05;;;3.72;;
38397;SDS011;24179;52.094;4.408;2024-03-02T02:59:07;4.43;;;3.40;;
38397;SDS011;24179;52.094;4.408;2024-03-02T03:02:13;4.97;;;3.65;;
38397;SDS011;24179;52.094;4.408;2024-03-02T03:05:16;3.75;;;3.38;;
38397;SDS011;24179;52.094;4.408;2024-03-02T03:08:17;4.32;;;3.55;;
38397;SDS011;24179;52.094;4.408;2024-03-02T03:19:42;4.18;;;3.78;;
38397;SDS011;24179;52.094;4.408;2024-03-02T03:23:21;4.30;;;2.97;;
38397;SDS011;24179;52.094;4.408;2024-03-02T03:26:25;4.55;;;2.95;;
38397;SDS011;24179;52.094;4.408;2024-03-02T03:29:28;4.37;;;3.10;;
38397;SDS011;24179;52.094;4.408;2024-03-02T03:32:29;4.30;;;3.20;;
38397;SDS011;24179;52.094;4.408;2024-03-02T03:35:32;3.72;;;3.33;;
38397;SDS011;24179;52.094;4.408;2024-03-02T03:38:33;6.13;;;3.17;;
38397;SDS011;24179;52.094;4.408;2024-03-02T03:41:37;3.60;;;3.30;;
38397;SDS011;24179;52.094;4.408;2024-03-02T03:44:40;3.30;;;3.00;;
38397;SDS011;24179;52.094;4.408;2024-03-02T03:47:49;5.43;;;3.30;;
38397;SDS011;24179;52.094;4.408;2024-03-02T03:50:50;4.13;;;3.30;;
38397;SDS011;24179;52.094;4.408;2024-03-02T03:54:00;4.18;;;3.70;;
38397;SDS011;24179;52.094;4.408;2024-03-02T03:57:19;5.80;;;3.85;;
38397;SDS011;24179;52.094;4.408;2024-03-02T04:00:19;4.45;;;3.47;;
38397;SDS011;24179;52.094;4.408;2024-03-02T04:03:20;5.07;;;3.43;;
38397;SDS011;24179;52.094;4.408;2024-03-02T04:06:21;4.50;;;3.57;;
38397;SDS011;24179;52.094;4.408;2024-03-02T04:09:21;4.87;;;3.23;;
38397;SDS011;24179;52.094;4.408;2024-03-02T04:12:22;3.53;;;2.92;;
38397;SDS011;24179;52.094;4.408;2024-03-02T04:15:23;7.20;;;3.30;;
38397;SDS011;24179;52.094;4.408;2024-03-02T04:18:25;5.05;;;3.33;;
38397;SDS011;24179;52.094;4.408;2024-03-02T04:21:26;3.67;;;3.03;;
38397;SDS011;24179;52.094;4.408;2024-03-02T04:24:26;5.27;;;3.20;;
38397;SDS011;24179;52.094;4.408;2024-03-02T04:27:32;4.05;;;3.10;;
38397;SDS011;24179;52.094;4.408;2024-03-02T04:30:33;5.15;;;3.20;;
38397;SDS011;24179;52.094;4.408;2024-03-02T04:33:34;3.43;;;3.10;;
38397;SDS011;24179;52.094;4.408;2024-03-02T04:36:34;4.10;;;3.27;;
38397;SDS011;24179;52.094;4.408;2024-03-02T04:39:37;3.65;;;3.03;;
38397;SDS011;24179;52.094;4.408;2024-03-02T04:42:38;3.77;;;3.03;;
38397;SDS011;24179;52.094;4.408;2024-03-02T04:45:41;5.60;;;3.33;;
38397;SDS011;24179;52.094;4.408;2024-03-02T04:48:45;3.40;;;3.10;;
38397;SDS011;24179;52.094;4.408;2024-03-02T04:51:48;4.00;;;3.13;;
38397;SDS011;24179;52.094;4.408;2024-03-02T04:54:49;3.97;;;3.23;;
38397;SDS011;24179;52.094;4.408;2024-03-02T04:58:08;4.20;;;3.13;;
38397;SDS011;24179;52.094;4.408;2024-03-02T05:01:09;4.23;;;3.00;;
38397;SDS011;24179;52.094;4.408;2024-03-02T05:07:11;4.23;;;3.10;;
38397;SDS011;24179;52.094;4.408;2024-03-02T05:10:14;5.47;;;3.20;;
38397;SDS011;24179;52.094;4.408;2024-03-02T05:13:14;4.25;;;2.90;;
38397;SDS011;24179;52.094;4.408;2024-03-02T05:16:15;4.13;;;2.90;;
38397;SDS011;24179;52.094;4.408;2024-03-02T05:19:18;4.13;;;2.70;;
38397;SDS011;24179;52.094;4.408;2024-03-02T05:22:21;4.32;;;2.70;;
38397;SDS011;24179;52.094;4.408;2024-03-02T05:25:24;4.00;;;2.80;;
38397;SDS011;24179;52.094;4.408;2024-03-02T05:28:25;4.18;;;2.80;;
38397;SDS011;24179;52.094;4.408;2024-03-02T05:31:25;4.40;;;2.60;;
38397;SDS011;24179;52.094;4.408;2024-03-02T05:34:29;6.03;;;2.70;;
38397;SDS011;24179;52.094;4.408;2024-03-02T05:37:39;3.97;;;2.50;;
38397;SDS011;24179;52.094;4.408;2024-03-02T05:40:42;3.15;;;2.70;;
38397;SDS011;24179;52.094;4.408;2024-03-02T05:43:44;3.57;;;2.50;;
38397;SDS011;24179;52.094;4.408;2024-03-02T05:46:45;2.85;;;2.60;;
38397;SDS011;24179;52.094;4.408;2024-03-02T05:49:58;3.50;;;2.90;;
38397;SDS011;24179;52.094;4.408;2024-03-02T05:53:01;3.35;;;2.70;;
38397;SDS011;24179;52.094;4.408;2024-03-02T05:56:02;2.95;;;2.60;;
38397;SDS011;24179;52.094;4.408;2024-03-02T05:59:07;4.53;;;2.70;;
38397;SDS011;24179;52.094;4.408;2024-03-02T06:02:13;3.10;;;2.80;;
38397;SDS011;24179;52.094;4.408;2024-03-02T06:05:14;2.90;;;2.70;;
38397;SDS011;24179;52.094;4.408;2024-03-02T06:08:16;5.18;;;2.95;;
38397;SDS011;24179;52.094;4.408;2024-03-02T06:11:18;5.47;;;3.20;;
38397;SDS011;24179;52.094;4.408;2024-03-02T06:14:24;3.92;;;2.70;;
38397;SDS011;24179;52.094;4.408;2024-03-02T06:17:35;4.70;;;2.95;;
38397;SDS011;24179;52.094;4.408;2024-03-02T06:20:38;5.72;;;3.20;;
38397;SDS011;24179;52.094;4.408;2024-03-02T06:23:41;4.10;;;2.78;;
38397;SDS011;24179;52.094;4.408;2024-03-02T06:26:42;4.15;;;3.00;;
38397;SDS011;24179;52.094;4.408;2024-03-02T06:29:48;5.70;;;2.45;;
38397;SDS011;24179;52.094;4.408;2024-03-02T06:32:48;3.33;;;2.70;;
38397;SDS011;24179;52.094;4.408;2024-03-02T06:35:49;5.43;;;2.70;;
38397;SDS011;24179;52.094;4.408;2024-03-02T06:38:49;3.57;;;2.90;;
38397;SDS011;24179;52.094;4.408;2024-03-02T06:41:50;4.57;;;3.10;;
38397;SDS011;24179;52.094;4.408;2024-03-02T06:44:51;5.47;;;3.20;;
38397;SDS011;24179;52.094;4.408;2024-03-02T06:47:52;4.85;;;3.78;;
38397;SDS011;24179;52.094;4.408;2024-03-02T06:50:52;4.73;;;3.17;;
38397;SDS011;24179;52.094;4.408;2024-03-02T06:53:55;4.20;;;3.33;;
38397;SDS011;24179;52.094;4.408;2024-03-02T06:56:56;3.50;;;3.20;;
38397;SDS011;24179;52.094;4.408;2024-03-02T06:59:57;3.60;;;3.30;;
38397;SDS011;24179;52.094;4.408;2024-03-02T07:02:58;4.38;;;3.30;;
38397;SDS011;24179;52.094;4.408;2024-03-02T07:05:59;3.40;;;3.10;;
38397;SDS011;24179;52.094;4.408;2024-03-02T07:09:00;5.38;;;3.78;;
38397;SDS011;24179;52.094;4.408;2024-03-02T07:12:01;4.20;;;2.80;;
38397;SDS011;24179;52.094;4.408;2024-03-02T07:15:02;3.23;;;3.00;;
38397;SDS011;24179;52.094;4.408;2024-03-02T07:21:04;4.18;;;3.20;;
38397;SDS011;24179;52.094;4.408;2024-03-02T07:24:05;3.80;;;3.40;;
38397;SDS011;24179;52.094;4.408;2024-03-02T07:30:07;4.00;;;3.20;;
38397;SDS011;24179;52.094;4.408;2024-03-02T07:33:08;3.25;;;3.00;;
38397;SDS011;24179;52.094;4.408;2024-03-02T07:36:08;4.20;;;3.30;;
38397;SDS011;24179;52.094;4.408;2024-03-02T07:39:09;4.10;;;3.00;;
38397;SDS011;24179;52.094;4.408;2024-03-02T07:42:10;3.40;;;3.10;;
38397;SDS011;24179;52.094;4.408;2024-03-02T07:45:10;4.17;;;3.40;;
38397;SDS011;24179;52.094;4.408;2024-03-02T07:48:11;7.30;;;3.40;;
38397;SDS011;24179;52.094;4.408;2024-03-02T07:51:12;4.35;;;3.28;;
38397;SDS011;24179;52.094;4.408;2024-03-02T07:57:14;8.87;;;4.13;;
38397;SDS011;24179;52.094;4.408;2024-03-02T08:00:15;4.00;;;3.40;;
38397;SDS011;24179;52.094;4.408;2024-03-02T08:03:15;8.32;;;3.85;;
38397;SDS011;24179;52.094;4.408;2024-03-02T08:06:17;4.03;;;3.40;;
38397;SDS011;24179;52.094;4.408;2024-03-02T08:09:17;4.63;;;3.60;;
38397;SDS011;24179;52.094;4.408;2024-03-02T08:12:18;3.43;;;3.03;;
38397;SDS011;24179;52.094;4.408;2024-03-02T08:15:19;5.85;;;3.90;;
38397;SDS011;24179;52.094;4.408;2024-03-02T08:18:20;4.37;;;3.03;;
38397;SDS011;24179;52.094;4.408;2024-03-02T08:21:21;5.13;;;2.80;;
38397;SDS011;24179;52.094;4.408;2024-03-02T08:24:22;5.03;;;3.10;;
38397;SDS011;24179;52.094;4.408;2024-03-02T08:27:22;5.90;;;3.40;;
38397;SDS011;24179;52.094;4.408;2024-03-02T08:30:23;8.73;;;4.20;;
38397;SDS011;24179;52.094;4.408;2024-03-02T08:33:24;8.70;;;3.23;;
38397;SDS011;24179;52.094;4.408;2024-03-02T08:36:24;10.90;;;4.50;;
38397;SDS011;24179;52.094;4.408;2024-03-02T08:39:25;4.07;;;3.67;;
38397;SDS011;24179;52.094;4.408;2024-03-02T08:42:25;4.57;;;3.70;;
38397;SDS011;24179;52.094;4.408;2024-03-02T08:45:26;6.65;;;3.20;;
38397;SDS011;24179;52.094;4.408;2024-03-02T08:48:29;4.30;;;3.28;;
38397;SDS011;24179;52.094;4.408;2024-03-02T08:51:29;3.73;;;3.43;;
38397;SDS011;24179;52.094;4.408;2024-03-02T08:54:30;4.07;;;3.43;;
38397;SDS011;24179;52.094;4.408;2024-03-02T08:57:31;6.70;;;3.58;;
38397;SDS011;24179;52.094;4.408;2024-03-02T09:00:33;9.10;;;3.58;;
38397;SDS011;24179;52.094;4.408;2024-03-02T09:03:34;8.00;;;3.70;;
38397;SDS011;24179;52.094;4.408;2024-03-02T09:06:35;12.63;;;4.32;;
38397;SDS011;24179;52.094;4.408;2024-03-02T09:09:38;10.00;;;3.80;;
38397;SDS011;24179;52.094;4.408;2024-03-02T09:12:39;5.35;;;3.53;;
38397;SDS011;24179;52.094;4.408;2024-03-02T09:15:39;7.10;;;3.30;;
38397;SDS011;24179;52.094;4.408;2024-03-02T09:18:40;7.57;;;3.13;;
38397;SDS011;24179;52.094;4.408;2024-03-02T09:21:41;7.28;;;3.42;;
38397;SDS011;24179;52.094;4.408;2024-03-02T09:24:44;5.55;;;3.30;;
38397;SDS011;24179;52.094;4.408;2024-03-02T09:27:47;5.83;;;3.47;;
38397;SDS011;24179;52.094;4.408;2024-03-02T09:30:51;10.30;;;3.70;;
38397;SDS011;24179;52.094;4.408;2024-03-02T09:33:53;6.90;;;3.35;;
38397;SDS011;24179;52.094;4.408;2024-03-02T09:37:00;8.23;;;3.42;;
38397;SDS011;24179;52.094;4.408;2024-03-02T09:40:04;10.35;;;4.07;;
38397;SDS011;24179;52.094;4.408;2024-03-02T09:43:06;9.50;;;3.22;;
38397;SDS011;24179;52.094;4.408;2024-03-02T09:49:12;7.93;;;3.22;;
38397;SDS011;24179;52.094;4.408;2024-03-02T09:52:15;4.40;;;2.85;;
38397;SDS011;24179;52.094;4.408;2024-03-02T09:55:19;8.27;;;3.70;;
38397;SDS011;24179;52.094;4.408;2024-03-02T09:58:20;5.00;;;3.33;;
38397;SDS011;24179;52.094;4.408;2024-03-02T10:01:21;5.90;;;3.42;;
38397;SDS011;24179;52.094;4.408;2024-03-02T10:04:30;14.13;;;4.53;;
38397;SDS011;24179;52.094;4.408;2024-03-02T10:07:55;5.18;;;3.83;;
38397;SDS011;24179;52.094;4.408;2024-03-02T10:11:04;6.50;;;4.50;;
38397;SDS011;24179;52.094;4.408;2024-03-02T10:14:25;10.23;;;4.50;;
38397;SDS011;24179;52.094;4.408;2024-03-02T10:17:30;8.83;;;3.97;;
38397;SDS011;24179;52.094;4.408;2024-03-02T10:20:31;12.77;;;4.57;;
38397;SDS011;24179;52.094;4.408;2024-03-02T10:23:33;6.65;;;4.30;;
38397;SDS011;24179;52.094;4.408;2024-03-02T10:26:34;6.33;;;4.30;;
38397;SDS011;24179;52.094;4.408;2024-03-02T10:29:37;7.88;;;4.15;;
38397;SDS011;24179;52.094;4.408;2024-03-02T10:32:39;7.78;;;4.22;;
38397;SDS011;24179;52.094;4.408;2024-03-02T10:35:56;7.22;;;3.92;;
38397;SDS011;24179;52.094;4.408;2024-03-02T10:39:05;7.45;;;4.10;;
38397;SDS011;24179;52.094;4.408;2024-03-02T10:42:07;9.57;;;4.68;;
38397;SDS011;24179;52.094;4.408;2024-03-02T10:45:11;6.20;;;4.40;;
38397;SDS011;24179;52.094;4.408;2024-03-02T10:48:15;13.63;;;5.18;;
38397;SDS011;24179;52.094;4.408;2024-03-02T10:51:20;12.32;;;4.50;;
38397;SDS011;24179;52.094;4.408;2024-03-02T10:54:20;9.17;;;5.00;;
38397;SDS011;24179;52.094;4.408;2024-03-02T11:00:40;10.70;;;4.87;;
38397;SDS011;24179;52.094;4.408;2024-03-02T11:03:51;7.47;;;4.38;;
38397;SDS011;24179;52.094;4.408;2024-03-02T11:06:56;6.72;;;4.53;;
38397;SDS011;24179;52.094;4.408;2024-03-02T11:10:06;6.35;;;5.30;;
38397;SDS011;24179;52.094;4.408;2024-03-02T11:13:20;10.57;;;4.20;;
38397;SDS011;24179;52.094;4.408;2024-03-02T11:19:39;14.98;;;5.30;;
38397;SDS011;24179;52.094;4.408;2024-03-02T11:22:41;6.85;;;4.40;;
38397;SDS011;24179;52.094;4.408;2024-03-02T11:25:44;10.10;;;3.90;;
38397;SDS011;24179;52.094;4.408;2024-03-02T11:28:52;8.38;;;4.75;;
38397;SDS011;24179;52.094;4.408;2024-03-02T11:31:58;13.88;;;4.72;;
38397;SDS011;24179;52.094;4.408;2024-03-02T11:35:04;12.73;;;4.05;;
38397;SDS011;24179;52.094;4.408;2024-03-02T11:38:07;7.50;;;3.58;;
38397;SDS011;24179;52.094;4.408;2024-03-02T11:41:09;7.43;;;3.30;;
38397;SDS011;24179;52.094;4.408;2024-03-02T11:44:09;9.97;;;4.23;;
38397;SDS011;24179;52.094;4.408;2024-03-02T11:47:12;6.90;;;5.22;;
38397;SDS011;24179;52.094;4.408;2024-03-02T11:53:30;9.57;;;5.65;;
38397;SDS011;24179;52.094;4.408;2024-03-02T11:56:41;11.30;;;5.47;;
38397;SDS011;24179;52.094;4.408;2024-03-02T11:59:45;5.93;;;4.15;;
38397;SDS011;24179;52.094;4.408;2024-03-02T12:03:00;6.15;;;5.20;;
38397;SDS011;24179;52.094;4.408;2024-03-02T12:06:05;8.10;;;4.72;;
38397;SDS011;24179;52.094;4.408;2024-03-02T12:09:07;6.63;;;4.05;;
38397;SDS011;24179;52.094;4.408;2024-03-02T12:12:12;12.63;;;4.32;;
38397;SDS011;24179;52.094;4.408;2024-03-02T12:15:17;12.55;;;5.72;;
38397;SDS011;24179;52.094;4.408;2024-03-02T12:18:23;11.70;;;6.30;;
38397;SDS011;24179;52.094;4.408;2024-03-02T12:21:25;10.15;;;5.20;;
38397;SDS011;24179;52.094;4.408;2024-03-02T12:24:29;6.75;;;5.40;;
38397;SDS011;24179;52.094;4.408;2024-03-02T12:27:34;6.20;;;5.68;;
38397;SDS011;24179;52.094;4.408;2024-03-02T12:30:41;7.55;;;5.78;;
38397;SDS011;24179;52.094;4.408;2024-03-02T12:33:49;7.30;;;5.13;;
38397;SDS011;24179;52.094;4.408;2024-03-02T12:37:03;16.10;;;6.38;;
38397;SDS011;24179;52.094;4.408;2024-03-02T12:40:42;6.10;;;5.28;;
38397;SDS011;24179;52.094;4.408;2024-03-02T12:43:45;7.15;;;5.22;;
38397;SDS011;24179;52.094;4.408;2024-03-02T12:46:47;6.95;;;5.30;;
38397;SDS011;24179;52.094;4.408;2024-03-02T12:49:55;6.97;;;5.32;;
38397;SDS011;24179;52.094;4.408;2024-03-02T12:52:59;9.68;;;6.15;;
38397;SDS011;24179;52.094;4.408;2024-03-02T12:56:01;17.53;;;6.50;;
38397;SDS011;24179;52.094;4.408;2024-03-02T12:59:20;10.27;;;4.80;;
38397;SDS011;24179;52.094;4.408;2024-03-02T13:02:49;14.82;;;6.15;;
38397;SDS011;24179;52.094;4.408;2024-03-02T13:06:16;7.15;;;5.00;;
38397;SDS011;24179;52.094;4.408;2024-03-02T13:09:30;8.27;;;5.70;;
38397;SDS011;24179;52.094;4.408;2024-03-02T13:12:33;15.15;;;4.90;;
38397;SDS011;24179;52.094;4.408;2024-03-02T13:15:38;17.75;;;5.78;;
38397;SDS011;24179;52.094;4.408;2024-03-02T13:18:45;8.00;;;4.00;;
38397;SDS011;24179;52.094;4.408;2024-03-02T13:21:58;7.07;;;4.45;;
38397;SDS011;24179;52.094;4.408;2024-03-02T13:25:12;7.80;;;4.30;;
38397;SDS011;24179;52.094;4.408;2024-03-02T13:28:24;16.40;;;5.63;;
38397;SDS011;24179;52.094;4.408;2024-03-02T13:31:25;7.18;;;3.90;;
38397;SDS011;24179;52.094;4.408;2024-03-02T13:34:26;6.97;;;4.00;;
38397;SDS011;24179;52.094;4.408;2024-03-02T13:37:28;10.52;;;4.40;;
38397;SDS011;24179;52.094;4.408;2024-03-02T13:40:29;8.80;;;4.40;;
38397;SDS011;24179;52.094;4.408;2024-03-02T13:43:35;8.77;;;4.60;;
38397;SDS011;24179;52.094;4.408;2024-03-02T13:46:37;8.65;;;4.50;;
38397;SDS011;24179;52.094;4.408;2024-03-02T13:49:38;9.67;;;4.47;;
38397;SDS011;24179;52.094;4.408;2024-03-02T13:52:43;11.32;;;4.70;;
38397;SDS011;24179;52.094;4.408;2024-03-02T13:55:44;15.57;;;5.97;;
38397;SDS011;24179;52.094;4.408;2024-03-02T13:58:47;6.03;;;4.50;;
38397;SDS011;24179;52.094;4.408;2024-03-02T14:01:49;5.43;;;4.60;;
38397;SDS011;24179;52.094;4.408;2024-03-02T14:04:57;5.85;;;5.28;;
38397;SDS011;24179;52.094;4.408;2024-03-02T14:07:58;7.23;;;4.57;;
38397;SDS011;24179;52.094;4.408;2024-03-02T14:11:01;7.10;;;6.35;;
38397;SDS011;24179;52.094;4.408;2024-03-02T14:14:15;6.78;;;5.28;;
38397;SDS011;24179;52.094;4.408;2024-03-02T14:17:17;9.43;;;6.72;;
38397;SDS011;24179;52.094;4.408;2024-03-02T14:20:18;6.10;;;5.50;;
38397;SDS011;24179;52.094;4.408;2024-03-02T14:23:24;6.00;;;4.82;;
38397;SDS011;24179;52.094;4.408;2024-03-02T14:29:33;8.77;;;4.90;;
38397;SDS011;24179;52.094;4.408;2024-03-02T14:32:37;7.22;;;4.40;;
38397;SDS011;24179;52.094;4.408;2024-03-02T14:35:42;10.80;;;5.20;;
38397;SDS011;24179;52.094;4.408;2024-03-02T14:38:49;8.60;;;5.40;;
38397;SDS011;24179;52.094;4.408;2024-03-02T14:41:51;4.75;;;4.35;;
38397;SDS011;24179;52.094;4.408;2024-03-02T14:44:51;6.97;;;4.77;;
38397;SDS011;24179;52.094;4.408;2024-03-02T14:47:57;7.63;;;4.72;;
38397;SDS011;24179;52.094;4.408;2024-03-02T14:51:04;7.97;;;5.90;;
38397;SDS011;24179;52.094;4.408;2024-03-02T14:54:07;9.75;;;5.70;;
38397;SDS011;24179;52.094;4.408;2024-03-02T14:57:08;7.28;;;4.78;;
38397;SDS011;24179;52.094;4.408;2024-03-02T15:00:11;5.72;;;5.20;;
38397;SDS011;24179;52.094;4.408;2024-03-02T15:03:19;6.05;;;5.28;;
38397;SDS011;24179;52.094;4.408;2024-03-02T15:06:22;8.33;;;4.93;;
38397;SDS011;24179;52.094;4.408;2024-03-02T15:09:29;7.50;;;5.22;;
38397;SDS011;24179;52.094;4.408;2024-03-02T15:12:40;5.30;;;4.85;;
38397;SDS011;24179;52.094;4.408;2024-03-02T15:15:48;6.75;;;4.60;;
38397;SDS011;24179;52.094;4.408;2024-03-02T15:18:50;6.18;;;5.00;;
38397;SDS011;24179;52.094;4.408;2024-03-02T15:21:52;6.07;;;5.47;;
38397;SDS011;24179;52.094;4.408;2024-03-02T15:24:53;10.52;;;6.78;;
38397;SDS011;24179;52.094;4.408;2024-03-02T15:27:54;7.87;;;6.30;;
38397;SDS011;24179;52.094;4.408;2024-03-02T15:31:00;6.55;;;5.80;;
38397;SDS011;24179;52.094;4.408;2024-03-02T15:34:03;16.17;;;13.60;;
